createdAt,value
2022-10-22T00:01:14.938Z,11.27
2022-10-22T00:03:43.565Z,12.93
2022-10-22T00:06:11.678Z,14.47
2022-10-22T00:08:40.145Z,16.70
2022-10-22T00:11:13.603Z,11.33
2022-10-22T00:13:42.879Z,11.43
2022-10-22T00:16:12.610Z,13.23
2022-10-22T00:18:41.860Z,8.00
2022-10-22T00:21:10.623Z,18.87
2022-10-22T00:23:41.730Z,11.17
2022-10-22T00:26:10.619Z,11.40
2022-10-22T00:28:39.069Z,11.63
2022-10-22T00:31:07.872Z,13.17
2022-10-22T00:33:37.612Z,11.40
2022-10-22T00:36:06.176Z,10.53
2022-10-22T00:38:35.021Z,8.80
2022-10-22T00:41:03.266Z,7.20
2022-10-22T00:43:31.461Z,7.80
2022-10-22T00:45:59.634Z,7.90
2022-10-22T00:48:30.830Z,10.30
2022-10-22T00:51:04.378Z,9.03
2022-10-22T00:53:44.793Z,10.23
2022-10-22T00:56:13.643Z,9.80
2022-10-22T00:58:46.953Z,10.47
2022-10-22T01:01:20.140Z,12.80
2022-10-22T01:03:49.119Z,10.27
2022-10-22T01:06:24.952Z,8.80
2022-10-22T01:09:03.015Z,8.43
2022-10-22T01:11:38.528Z,5.13
2022-10-22T01:14:18.857Z,5.97
2022-10-22T01:16:54.432Z,13.30
2022-10-22T01:19:37.702Z,11.83
2022-10-22T01:22:14.515Z,10.30
2022-10-22T01:25:01.379Z,7.93
2022-10-22T01:27:39.599Z,11.17
2022-10-22T01:30:11.482Z,6.63
2022-10-22T01:32:44.921Z,13.40
2022-10-22T01:35:17.277Z,10.40
2022-10-22T01:37:50.184Z,7.53
2022-10-22T01:40:20.024Z,8.53
2022-10-22T01:43:00.060Z,7.87
2022-10-22T01:45:32.082Z,7.53
2022-10-22T01:48:10.038Z,7.70
2022-10-22T01:50:54.398Z,6.30
2022-10-22T01:53:37.787Z,5.60
2022-10-22T01:56:26.690Z,8.07
2022-10-22T01:59:04.902Z,5.17
2022-10-22T02:01:43.681Z,7.47
2022-10-22T02:04:18.677Z,5.53
2022-10-22T02:06:49.793Z,7.47
2022-10-22T02:09:21.290Z,8.40
2022-10-22T02:11:51.110Z,6.77
2022-10-22T02:14:21.477Z,10.20
2022-10-22T02:16:52.219Z,12.67
2022-10-22T02:19:26.373Z,10.13
2022-10-22T02:21:54.906Z,3.90
2022-10-22T02:24:23.675Z,6.50
2022-10-22T02:27:00.230Z,7.20
2022-10-22T02:29:32.314Z,8.10
2022-10-22T02:32:04.705Z,7.23
2022-10-22T02:34:34.202Z,11.57
2022-10-22T02:37:04.115Z,5.97
2022-10-22T02:39:33.794Z,6.57
2022-10-22T02:42:03.204Z,5.63
2022-10-22T02:44:31.322Z,8.33
2022-10-22T02:47:01.700Z,8.17
2022-10-22T02:49:30.149Z,10.40
2022-10-22T02:51:58.690Z,10.80
2022-10-22T02:54:26.926Z,5.40
2022-10-22T02:56:55.025Z,13.53
2022-10-22T02:59:23.308Z,5.87
2022-10-22T03:01:51.654Z,3.97
2022-10-22T03:04:21.168Z,4.83
2022-10-22T03:06:49.326Z,5.47
2022-10-22T03:09:21.307Z,4.40
2022-10-22T03:11:52.596Z,4.73
2022-10-22T03:14:21.398Z,9.13
2022-10-22T03:16:49.598Z,5.97
2022-10-22T03:19:17.873Z,6.53
2022-10-22T03:21:50.627Z,8.63
2022-10-22T03:24:23.589Z,9.83
2022-10-22T03:26:53.120Z,6.13
2022-10-22T03:29:23.553Z,6.03
2022-10-22T03:31:52.103Z,7.10
2022-10-22T03:34:20.452Z,5.40
2022-10-22T03:36:50.493Z,4.73
2022-10-22T03:39:20.652Z,7.60
2022-10-22T03:41:50.716Z,7.63
2022-10-22T03:44:20.241Z,6.80
2022-10-22T03:46:48.377Z,6.00
2022-10-22T03:49:16.650Z,5.80
2022-10-22T03:51:44.993Z,7.40
2022-10-22T03:54:14.614Z,6.60
2022-10-22T03:56:42.726Z,7.07
2022-10-22T03:59:10.930Z,4.80
2022-10-22T04:01:38.999Z,6.50
2022-10-22T04:04:07.418Z,7.13
2022-10-22T04:06:35.802Z,5.20
2022-10-22T04:09:03.948Z,11.37
2022-10-22T04:11:34.552Z,4.47
2022-10-22T04:14:03.101Z,10.63
2022-10-22T04:16:32.774Z,6.27
2022-10-22T04:19:00.977Z,9.00
2022-10-22T04:21:29.162Z,13.33
2022-10-22T04:23:57.353Z,5.97
2022-10-22T04:26:26.161Z,7.50
2022-10-22T04:28:56.082Z,6.80
2022-10-22T04:31:25.947Z,8.37
2022-10-22T04:33:55.687Z,8.97
2022-10-22T04:36:24.868Z,4.80
2022-10-22T04:38:55.297Z,5.23
2022-10-22T04:41:26.319Z,9.30
2022-10-22T04:43:56.608Z,14.83
2022-10-22T04:46:26.286Z,8.67
2022-10-22T04:48:55.064Z,7.67
2022-10-22T04:51:25.118Z,6.43
2022-10-22T04:53:53.252Z,4.30
2022-10-22T04:56:25.201Z,7.10
2022-10-22T04:58:56.125Z,4.10
2022-10-22T05:01:26.047Z,7.30
2022-10-22T05:03:57.088Z,7.47
2022-10-22T05:06:26.221Z,4.50
2022-10-22T05:08:56.106Z,8.17
2022-10-22T05:11:28.023Z,5.40
2022-10-22T05:13:58.926Z,5.47
2022-10-22T05:16:27.923Z,5.63
2022-10-22T05:18:56.223Z,5.77
2022-10-22T05:21:24.451Z,9.73
2022-10-22T05:23:53.214Z,7.47
2022-10-22T05:26:23.227Z,4.80
2022-10-22T05:28:51.959Z,5.60
2022-10-22T05:31:21.958Z,8.63
2022-10-22T05:33:50.401Z,5.77
2022-10-22T05:36:21.053Z,7.37
2022-10-22T05:38:49.952Z,5.63
2022-10-22T05:41:20.277Z,13.83
2022-10-22T05:43:48.752Z,6.70
2022-10-22T05:46:22.519Z,11.50
2022-10-22T05:48:53.639Z,8.63
2022-10-22T05:51:22.885Z,7.57
2022-10-22T05:53:54.485Z,8.43
2022-10-22T05:56:23.122Z,6.57
2022-10-22T05:58:51.745Z,7.00
2022-10-22T06:01:22.700Z,8.20
2022-10-22T06:03:54.206Z,6.70
2022-10-22T06:06:28.416Z,10.80
2022-10-22T06:08:58.578Z,6.27
2022-10-22T06:11:28.886Z,7.67
2022-10-22T06:13:59.352Z,4.67
2022-10-22T06:16:30.436Z,7.20
2022-10-22T06:19:02.121Z,5.30
2022-10-22T06:21:30.950Z,7.73
2022-10-22T06:24:00.361Z,8.90
2022-10-22T06:26:29.222Z,7.50
2022-10-22T06:28:57.867Z,11.33
2022-10-22T06:31:27.544Z,8.43
2022-10-22T06:33:57.517Z,4.90
2022-10-22T06:36:27.126Z,8.93
2022-10-22T06:38:56.568Z,9.37
2022-10-22T06:41:28.786Z,8.90
2022-10-22T06:43:58.551Z,7.07
2022-10-22T06:46:26.976Z,6.47
2022-10-22T06:48:57.819Z,9.40
2022-10-22T06:51:28.410Z,5.53
2022-10-22T06:53:57.510Z,5.80
2022-10-22T06:56:27.599Z,9.27
2022-10-22T06:58:57.494Z,12.10
2022-10-22T07:01:27.295Z,8.40
2022-10-22T07:03:56.568Z,9.63
2022-10-22T07:06:27.537Z,11.10
2022-10-22T07:08:56.710Z,14.27
2022-10-22T07:11:26.761Z,7.10
2022-10-22T07:13:56.507Z,16.93
2022-10-22T07:16:29.519Z,5.67
2022-10-22T07:19:01.108Z,6.83
2022-10-22T07:21:31.179Z,8.27
2022-10-22T07:23:59.544Z,8.17
2022-10-22T07:26:31.282Z,6.80
2022-10-22T07:29:00.304Z,9.67
2022-10-22T07:31:29.044Z,7.20
2022-10-22T07:33:57.334Z,7.30
2022-10-22T07:36:25.494Z,9.60
2022-10-22T07:38:57.946Z,15.73
2022-10-22T07:41:27.110Z,13.23
2022-10-22T07:43:55.900Z,8.70
2022-10-22T07:46:24.741Z,8.47
2022-10-22T07:48:52.919Z,10.27
2022-10-22T07:51:21.167Z,8.37
2022-10-22T07:53:49.252Z,8.20
2022-10-22T07:56:18.758Z,11.77
2022-10-22T07:58:47.059Z,7.83
2022-10-22T08:01:15.675Z,8.03
2022-10-22T08:03:44.173Z,7.80
2022-10-22T08:06:15.301Z,7.13
2022-10-22T08:08:43.581Z,12.43
2022-10-22T08:11:11.875Z,10.47
2022-10-22T08:13:45.382Z,13.10
2022-10-22T08:16:14.935Z,7.73
2022-10-22T08:18:43.533Z,8.57
2022-10-22T08:21:12.211Z,9.17
2022-10-22T08:23:40.691Z,12.93
2022-10-22T08:26:09.210Z,16.67
2022-10-22T08:28:37.972Z,12.77
2022-10-22T08:31:08.705Z,13.63
2022-10-22T08:33:37.163Z,10.13
2022-10-22T08:36:05.844Z,8.83
2022-10-22T08:38:35.641Z,9.20
2022-10-22T08:41:10.972Z,11.50
2022-10-22T08:43:53.071Z,13.30
2022-10-22T08:46:40.231Z,10.13
2022-10-22T08:49:17.087Z,14.83
2022-10-22T08:51:45.438Z,12.63
2022-10-22T08:54:25.080Z,15.87
2022-10-22T08:57:05.993Z,17.40
2022-10-22T08:59:42.972Z,9.00
2022-10-22T09:02:31.504Z,13.47
2022-10-22T09:05:12.266Z,10.43
2022-10-22T09:07:43.315Z,14.63
2022-10-22T09:10:14.195Z,9.87
2022-10-22T09:12:42.489Z,12.03
2022-10-22T09:15:15.053Z,12.17
2022-10-22T09:17:57.437Z,10.57
2022-10-22T09:20:33.434Z,19.80
2022-10-22T09:23:18.264Z,10.67
2022-10-22T09:25:49.190Z,14.00
2022-10-22T09:28:18.076Z,20.77
2022-10-22T09:30:46.594Z,14.73
2022-10-22T09:33:21.558Z,11.50
2022-10-22T09:35:55.141Z,17.07
2022-10-22T09:38:27.643Z,10.17
2022-10-22T09:40:57.702Z,19.10
2022-10-22T09:43:26.027Z,15.97
2022-10-22T09:45:59.121Z,13.63
2022-10-22T09:48:34.533Z,20.00
2022-10-22T09:51:08.164Z,12.50
2022-10-22T09:53:39.358Z,13.30
2022-10-22T09:56:11.296Z,16.77
2022-10-22T09:58:44.919Z,13.07
2022-10-22T10:01:19.098Z,16.50
2022-10-22T10:03:50.191Z,20.23
2022-10-22T10:06:21.171Z,17.43
2022-10-22T10:08:49.804Z,14.23
2022-10-22T10:11:29.111Z,20.60
2022-10-22T10:14:08.911Z,26.03
2022-10-22T10:16:46.125Z,13.87
2022-10-22T10:19:29.308Z,17.07
2022-10-22T10:22:07.354Z,15.50
2022-10-22T10:24:49.157Z,18.00
2022-10-22T10:27:24.640Z,11.70
2022-10-22T10:30:01.120Z,13.47
2022-10-22T10:32:45.350Z,12.17
2022-10-22T10:35:25.080Z,12.67
2022-10-22T10:38:03.685Z,16.83
2022-10-22T10:40:38.901Z,13.47
2022-10-22T10:43:11.941Z,15.80
2022-10-22T10:45:51.254Z,18.33
2022-10-22T10:48:38.164Z,18.63
2022-10-22T10:51:24.602Z,15.93
2022-10-22T10:54:16.066Z,17.60
2022-10-22T10:56:49.285Z,16.07
2022-10-22T10:59:27.736Z,19.40
2022-10-22T11:02:16.249Z,17.67
2022-10-22T11:05:17.974Z,22.00
2022-10-22T11:07:55.943Z,15.77
2022-10-22T11:10:30.412Z,19.27
2022-10-22T11:13:04.693Z,19.53
2022-10-22T11:15:34.972Z,24.07
2022-10-22T11:18:12.180Z,18.87
2022-10-22T11:20:50.711Z,25.50
2022-10-22T11:23:26.766Z,18.20
2022-10-22T11:25:54.926Z,22.23
2022-10-22T11:28:28.749Z,21.23
2022-10-22T11:31:03.299Z,26.20
2022-10-22T11:33:39.337Z,27.13
2022-10-22T11:36:09.587Z,27.87
2022-10-22T11:38:39.149Z,22.70
2022-10-22T11:41:12.024Z,22.83
2022-10-22T11:43:58.344Z,22.60
2022-10-22T11:46:39.980Z,21.27
2022-10-22T11:49:20.043Z,23.17
2022-10-22T11:51:48.919Z,25.93
2022-10-22T11:54:43.383Z,22.50
2022-10-22T11:57:21.344Z,28.07
2022-10-22T11:59:53.571Z,23.97
2022-10-22T12:02:41.624Z,24.53
2022-10-22T12:05:35.617Z,19.17
2022-10-22T12:08:25.891Z,25.73
2022-10-22T12:11:07.325Z,21.87
2022-10-22T12:14:03.008Z,24.43
2022-10-22T12:16:55.204Z,25.90
2022-10-22T12:19:33.113Z,22.30
2022-10-22T12:22:12.653Z,22.53
2022-10-22T12:24:43.078Z,22.17
2022-10-22T12:27:22.630Z,23.00
2022-10-22T12:29:56.860Z,26.20
2022-10-22T12:32:33.854Z,25.57
2022-10-22T12:35:06.402Z,26.47
2022-10-22T12:37:37.566Z,23.47
2022-10-22T12:40:19.126Z,28.20
2022-10-22T12:42:56.682Z,21.03
2022-10-22T12:45:27.977Z,24.73
2022-10-22T12:47:59.352Z,21.50
2022-10-22T12:50:34.344Z,23.97
2022-10-22T12:53:02.825Z,20.83
2022-10-22T12:55:34.251Z,20.47
2022-10-22T12:58:06.983Z,24.63
2022-10-22T13:00:36.517Z,24.07
2022-10-22T13:03:07.552Z,26.13
2022-10-22T13:05:39.274Z,21.70
2022-10-22T13:08:11.767Z,20.00
2022-10-22T13:10:42.009Z,20.63
2022-10-22T13:13:33.363Z,22.50
2022-10-22T13:16:24.420Z,25.13
2022-10-22T13:18:54.206Z,24.20
2022-10-22T13:21:29.557Z,23.87
2022-10-22T13:24:00.371Z,29.77
2022-10-22T13:26:35.326Z,23.53
2022-10-22T13:29:11.921Z,21.83
2022-10-22T13:31:47.565Z,20.40
2022-10-22T13:34:18.505Z,25.07
2022-10-22T13:36:46.994Z,23.93
2022-10-22T13:39:19.054Z,25.33
2022-10-22T13:41:50.264Z,22.03
2022-10-22T13:44:20.125Z,20.20
2022-10-22T13:46:49.485Z,20.87
2022-10-22T13:49:20.558Z,28.63
2022-10-22T13:51:51.037Z,20.30
2022-10-22T13:54:21.996Z,22.43
2022-10-22T13:56:50.172Z,26.90
2022-10-22T13:59:22.948Z,32.33
2022-10-22T14:01:53.233Z,21.00
2022-10-22T14:04:21.484Z,26.13
2022-10-22T14:06:49.832Z,24.13
2022-10-22T14:09:23.115Z,27.10
2022-10-22T14:11:51.316Z,32.30
2022-10-22T14:14:20.742Z,28.17
2022-10-22T14:16:49.480Z,30.10
2022-10-22T14:19:18.976Z,26.70
2022-10-22T14:21:47.180Z,25.33
2022-10-22T14:24:15.656Z,27.80
2022-10-22T14:26:43.773Z,21.53
2022-10-22T14:29:12.147Z,24.23
2022-10-22T14:31:43.922Z,26.80
2022-10-22T14:34:13.880Z,23.70
2022-10-22T14:36:43.767Z,21.57
2022-10-22T14:39:12.792Z,24.13
2022-10-22T14:41:42.000Z,21.13
2022-10-22T14:44:12.819Z,20.43
2022-10-22T14:46:44.405Z,15.30
2022-10-22T14:49:12.818Z,20.30
2022-10-22T14:51:40.934Z,24.87
2022-10-22T14:54:09.585Z,17.07
2022-10-22T14:59:11.214Z,24.47
2022-10-22T15:01:42.127Z,29.60
2022-10-22T15:04:11.691Z,27.70
2022-10-22T15:06:40.102Z,27.53
2022-10-22T15:09:08.279Z,23.03
2022-10-22T15:11:36.852Z,23.60
2022-10-22T15:14:05.046Z,27.03
2022-10-22T15:16:33.213Z,22.00
2022-10-22T15:19:01.623Z,27.13
2022-10-22T15:21:31.442Z,21.33
2022-10-22T15:24:00.769Z,25.63
2022-10-22T15:26:29.448Z,33.43
2022-10-22T15:28:58.029Z,37.37
2022-10-22T15:31:45.737Z,43.33
2022-10-22T15:34:14.514Z,42.10
2022-10-22T15:36:43.969Z,31.13
2022-10-22T15:39:12.440Z,51.10
2022-10-22T15:41:40.942Z,41.60
2022-10-22T15:44:09.236Z,50.00
2022-10-22T15:46:37.532Z,52.37
2022-10-22T15:49:06.193Z,44.17
2022-10-22T15:51:34.330Z,43.47
2022-10-22T15:54:07.900Z,34.17
2022-10-22T15:56:38.226Z,45.27
2022-10-22T15:59:06.728Z,31.37
2022-10-22T16:01:36.174Z,36.50
2022-10-22T16:04:04.809Z,38.30
2022-10-22T16:06:35.622Z,40.00
2022-10-22T16:09:07.076Z,44.20
2022-10-22T16:11:36.512Z,47.37
2022-10-22T16:14:04.726Z,42.33
2022-10-22T16:16:34.969Z,40.03
2022-10-22T16:19:03.437Z,37.83
2022-10-22T16:21:31.701Z,38.83
2022-10-22T16:24:06.091Z,41.80
2022-10-22T16:26:37.017Z,43.83
2022-10-22T16:29:05.570Z,41.67
2022-10-22T16:31:33.802Z,38.97
2022-10-22T16:34:02.939Z,52.20
2022-10-22T16:36:31.098Z,38.40
2022-10-22T16:38:59.161Z,51.57
2022-10-22T16:41:35.371Z,40.73
2022-10-22T16:44:07.811Z,40.07
2022-10-22T16:46:38.523Z,42.30
2022-10-22T16:49:07.014Z,42.03
2022-10-22T16:51:35.803Z,44.80
2022-10-22T16:54:06.775Z,43.53
2022-10-22T16:56:37.919Z,44.83
2022-10-22T16:59:08.269Z,41.77
2022-10-22T17:01:41.294Z,42.37
2022-10-22T17:04:09.974Z,50.17
2022-10-22T17:06:38.197Z,49.07
2022-10-22T17:09:06.469Z,45.63
2022-10-22T17:11:37.278Z,39.40
2022-10-22T17:14:08.593Z,48.93
2022-10-22T17:16:37.326Z,39.47
2022-10-22T17:19:05.950Z,48.57
2022-10-22T17:21:34.361Z,45.83
2022-10-22T17:24:02.543Z,51.10
2022-10-22T17:26:33.258Z,55.77
2022-10-22T17:29:01.806Z,47.67
2022-10-22T17:31:33.365Z,60.57
2022-10-22T17:34:01.555Z,49.57
2022-10-22T17:36:33.430Z,48.60
2022-10-22T17:39:07.125Z,60.50
2022-10-22T17:41:37.242Z,63.70
2022-10-22T17:44:09.189Z,51.37
2022-10-22T17:46:39.514Z,56.63
2022-10-22T17:49:13.811Z,48.80
2022-10-22T17:51:41.947Z,48.47
2022-10-22T17:54:10.494Z,54.53
2022-10-22T17:56:40.597Z,51.93
2022-10-22T17:59:09.351Z,47.67
2022-10-22T18:01:43.469Z,56.10
2022-10-22T18:04:14.836Z,51.63
2022-10-22T18:06:43.097Z,44.90
2022-10-22T18:09:17.259Z,46.93
2022-10-22T18:11:47.657Z,46.70
2022-10-22T18:14:16.351Z,50.53
2022-10-22T18:16:46.258Z,49.17
2022-10-22T18:19:17.751Z,52.87
2022-10-22T18:21:45.862Z,46.70
2022-10-22T18:24:15.607Z,48.67
2022-10-22T18:26:44.177Z,45.90
2022-10-22T18:29:16.029Z,42.77
2022-10-22T18:31:46.101Z,42.00
2022-10-22T18:34:15.809Z,40.10
2022-10-22T18:36:46.067Z,46.73
2022-10-22T18:39:16.250Z,45.13
2022-10-22T18:41:44.887Z,55.80
2022-10-22T18:44:15.529Z,45.63
2022-10-22T18:46:45.403Z,49.90
2022-10-22T18:49:19.186Z,47.13
2022-10-22T18:51:48.899Z,47.70
2022-10-22T18:54:24.884Z,42.53
2022-10-22T18:56:54.299Z,44.83
2022-10-22T18:59:25.050Z,44.57
2022-10-22T19:01:57.883Z,41.23
2022-10-22T19:04:28.402Z,42.43
2022-10-22T19:06:58.468Z,44.97
2022-10-22T19:09:27.425Z,45.17
2022-10-22T19:11:55.945Z,49.10
2022-10-22T19:14:24.053Z,47.53
2022-10-22T19:16:52.438Z,54.17
2022-10-22T19:19:23.084Z,66.30
2022-10-22T19:21:51.633Z,62.27
2022-10-22T19:24:21.851Z,52.57
2022-10-22T19:26:50.667Z,58.43
2022-10-22T19:29:20.865Z,60.00
2022-10-22T19:31:51.433Z,64.63
2022-10-22T19:34:21.862Z,68.97
2022-10-22T19:36:51.913Z,60.60
2022-10-22T19:39:20.644Z,67.37
2022-10-22T19:41:48.879Z,66.00
2022-10-22T19:44:17.681Z,70.20
2022-10-22T19:46:45.803Z,63.70
2022-10-22T19:49:17.709Z,66.90
2022-10-22T19:51:50.665Z,72.23
2022-10-22T19:54:20.502Z,65.27
2022-10-22T19:56:50.191Z,62.90
2022-10-22T19:59:20.838Z,64.83
2022-10-22T20:01:49.118Z,50.43
2022-10-22T20:04:18.518Z,54.50
2022-10-22T20:06:47.477Z,44.67
2022-10-22T20:09:17.471Z,38.27
2022-10-22T20:11:45.872Z,33.43
2022-10-22T20:14:14.872Z,26.20
2022-10-22T20:16:43.853Z,23.37
2022-10-22T20:19:16.265Z,21.67
2022-10-22T20:21:45.117Z,19.03
2022-10-22T20:24:13.724Z,20.27
2022-10-22T20:26:47.284Z,17.80
2022-10-22T20:29:16.597Z,16.63
2022-10-22T20:31:44.659Z,15.30
2022-10-22T20:34:12.901Z,19.20
2022-10-22T20:36:41.671Z,16.43
2022-10-22T20:39:13.258Z,15.17
2022-10-22T20:41:43.097Z,14.23
2022-10-22T20:44:15.308Z,13.23
2022-10-22T20:46:44.371Z,13.33
2022-10-22T20:49:15.528Z,13.43
2022-10-22T20:51:43.797Z,11.80
2022-10-22T20:54:12.376Z,13.27
2022-10-22T20:56:43.075Z,13.97
2022-10-22T20:59:12.478Z,10.30
2022-10-22T21:01:43.750Z,10.13
2022-10-22T21:04:11.813Z,12.90
2022-10-22T21:06:41.616Z,17.37
2022-10-22T21:09:11.389Z,16.13
2022-10-22T21:11:40.522Z,17.70
2022-10-22T21:14:12.934Z,10.70
2022-10-22T21:16:42.721Z,12.50
2022-10-22T21:19:10.969Z,13.47
2022-10-22T21:21:39.113Z,12.90
2022-10-22T21:24:07.744Z,9.70
2022-10-22T21:26:38.397Z,9.70
2022-10-22T21:29:07.129Z,11.27
2022-10-22T21:31:36.862Z,9.63
2022-10-22T21:34:04.993Z,11.27
2022-10-22T21:36:33.554Z,10.87
2022-10-22T21:39:03.172Z,8.40
2022-10-22T21:41:31.257Z,8.30
2022-10-22T21:43:59.696Z,8.40
2022-10-22T21:46:29.520Z,9.00
2022-10-22T21:49:01.734Z,7.57
2022-10-22T21:51:30.770Z,10.07
2022-10-22T21:53:59.178Z,6.27
2022-10-22T21:56:30.162Z,6.87
2022-10-22T21:58:58.308Z,5.57
2022-10-22T22:01:26.871Z,6.70
2022-10-22T22:03:55.742Z,8.07
2022-10-22T22:06:29.495Z,6.27
2022-10-22T22:08:59.711Z,6.83
2022-10-22T22:11:29.248Z,7.87
2022-10-22T22:13:58.711Z,7.87
2022-10-22T22:16:30.366Z,9.67
2022-10-22T22:19:00.002Z,9.90
2022-10-22T22:21:30.082Z,11.70
2022-10-22T22:23:58.938Z,11.10
2022-10-22T22:26:29.902Z,8.13
2022-10-22T22:29:00.036Z,8.90
2022-10-22T22:31:30.278Z,9.30
2022-10-22T22:34:03.650Z,9.50
2022-10-22T22:36:37.555Z,14.70
2022-10-22T22:39:07.116Z,9.97
2022-10-22T22:41:35.920Z,11.43
2022-10-22T22:44:04.148Z,12.13
2022-10-22T22:46:32.692Z,11.87
2022-10-22T22:49:01.137Z,12.03
2022-10-22T22:51:29.244Z,10.57
2022-10-22T22:54:00.481Z,10.53
2022-10-22T22:56:30.319Z,11.47
2022-10-22T22:58:59.507Z,12.40
2022-10-22T23:01:29.712Z,8.07
2022-10-22T23:03:59.910Z,9.00
2022-10-22T23:06:29.287Z,8.67
2022-10-22T23:08:59.945Z,6.73
2022-10-22T23:11:29.061Z,9.37
2022-10-22T23:14:00.033Z,10.20
2022-10-22T23:16:30.898Z,7.80
2022-10-22T23:19:00.791Z,6.93
2022-10-22T23:21:30.406Z,6.87
2022-10-22T23:24:02.518Z,11.27
2022-10-22T23:26:32.731Z,8.27
2022-10-22T23:29:02.713Z,8.33
2022-10-22T23:31:31.260Z,7.47
2022-10-22T23:33:59.755Z,9.70
2022-10-22T23:36:28.506Z,10.53
2022-10-22T23:38:56.862Z,8.57
2022-10-22T23:41:26.381Z,7.57
2022-10-22T23:43:54.561Z,7.87
2022-10-22T23:46:23.013Z,8.13
2022-10-22T23:48:51.173Z,10.27
2022-10-22T23:51:19.417Z,6.77
2022-10-22T23:53:48.244Z,9.13
2022-10-22T23:56:17.824Z,9.30
2022-10-22T23:58:51.590Z,10.23
